sensor_id;sensor_type;location;lat;lon;timestamp;pressure;altitude;pressure_sealevel;temperature;humidity
74529;BME280;63009;52.584;5.932;2023-04-07T00:01:12;101420.25;;;7.42;100.00
74529;BME280;63009;52.584;5.932;2023-04-07T00:03:38;101415.28;;;7.34;100.00
74529;BME280;63009;52.584;5.932;2023-04-07T00:06:05;101406.59;;;7.32;100.00
74529;BME280;63009;52.584;5.932;2023-04-07T00:08:30;101420.38;;;7.39;100.00
74529;BME280;63009;52.584;5.932;2023-04-07T00:10:55;101420.25;;;7.42;100.00
74529;BME280;63009;52.584;5.932;2023-04-07T00:13:22;101417.47;;;7.47;100.00
74529;BME280;63009;52.584;5.932;2023-04-07T00:15:47;101420.00;;;7.50;100.00
74529;BME280;63009;52.584;5.932;2023-04-07T00:18:13;101414.84;;;7.47;100.00
74529;BME280;63009;52.584;5.932;2023-04-07T00:20:38;101390.75;;;7.34;100.00
74529;BME280;63009;52.584;5.932;2023-04-07T00:23:03;101419.06;;;7.51;100.00
74529;BME280;63009;52.584;5.932;2023-04-07T00:25:29;101414.88;;;7.45;100.00
74529;BME280;63009;52.584;5.932;2023-04-07T00:27:54;101420.91;;;7.49;100.00
74529;BME280;63009;52.584;5.932;2023-04-07T00:30:20;101412.16;;;7.48;100.00
74529;BME280;63009;52.584;5.932;2023-04-07T00:32:45;101426.97;;;7.51;100.00
74529;BME280;63009;52.584;5.932;2023-04-07T00:35:10;101404.25;;;7.48;100.00
74529;BME280;63009;52.584;5.932;2023-04-07T00:37:36;101427.59;;;7.57;100.00
74529;BME280;63009;52.584;5.932;2023-04-07T00:40:01;101405.31;;;7.42;100.00
74529;BME280;63009;52.584;5.932;2023-04-07T00:42:26;101430.22;;;7.57;100.00
74529;BME280;63009;52.584;5.932;2023-04-07T00:44:52;101420.53;;;7.58;100.00
74529;BME280;63009;52.584;5.932;2023-04-07T00:47:17;101411.91;;;7.54;100.00
74529;BME280;63009;52.584;5.932;2023-04-07T00:49:42;101423.97;;;7.60;100.00
74529;BME280;63009;52.584;5.932;2023-04-07T00:52:09;101422.19;;;7.62;100.00
74529;BME280;63009;52.584;5.932;2023-04-07T00:54:38;101423.81;;;7.64;100.00
74529;BME280;63009;52.584;5.932;2023-04-07T00:57:05;101415.88;;;7.66;100.00
74529;BME280;63009;52.584;5.932;2023-04-07T00:59:31;101418.56;;;7.64;100.00
74529;BME280;63009;52.584;5.932;2023-04-07T01:02:09;101423.75;;;7.66;100.00
74529;BME280;63009;52.584;5.932;2023-04-07T01:04:38;101427.88;;;7.73;100.00
74529;BME280;63009;52.584;5.932;2023-04-07T01:07:26;101413.06;;;7.70;100.00
74529;BME280;63009;52.584;5.932;2023-04-07T01:09:59;101411.41;;;7.68;100.00
74529;BME280;63009;52.584;5.932;2023-04-07T01:13:27;101425.25;;;7.73;100.00
74529;BME280;63009;52.584;5.932;2023-04-07T01:15:33;101406.38;;;7.62;100.00
74529;BME280;63009;52.584;5.932;2023-04-07T01:18:05;101420.22;;;7.67;100.00
74529;BME280;63009;52.584;5.932;2023-04-07T01:20:33;101404.75;;;7.58;100.00
74529;BME280;63009;52.584;5.932;2023-04-07T01:23:04;101423.66;;;7.69;100.00
74529;BME280;63009;52.584;5.932;2023-04-07T01:25:41;101423.53;;;7.72;100.00
74529;BME280;63009;52.584;5.932;2023-04-07T01:28:40;101401.94;;;7.64;100.00
74529;BME280;63009;52.584;5.932;2023-04-07T01:31:09;101418.19;;;7.75;100.00
74529;BME280;63009;52.584;5.932;2023-04-07T01:33:37;101423.38;;;7.77;100.00
74529;BME280;63009;52.584;5.932;2023-04-07T01:36:05;101429.59;;;7.74;100.00
74529;BME280;63009;52.584;5.932;2023-04-07T01:38:32;101422.59;;;7.73;100.00
74529;BME280;63009;52.584;5.932;2023-04-07T01:40:58;101429.56;;;7.76;100.00
74529;BME280;63009;52.584;5.932;2023-04-07T01:43:25;101422.59;;;7.74;100.00
74529;BME280;63009;52.584;5.932;2023-04-07T01:45:53;101422.72;;;7.70;100.00
74529;BME280;63009;52.584;5.932;2023-04-07T01:48:19;101439.09;;;7.78;100.00
74529;BME280;63009;52.584;5.932;2023-04-07T01:50:45;101412.28;;;7.68;100.00
74529;BME280;63009;52.584;5.932;2023-04-07T01:53:11;101434.50;;;7.83;100.00
74529;BME280;63009;52.584;5.932;2023-04-07T01:55:37;101437.16;;;7.83;100.00
74529;BME280;63009;52.584;5.932;2023-04-07T01:58:05;101425.41;;;7.68;100.00
74529;BME280;63009;52.584;5.932;2023-04-07T02:00:31;101427.13;;;7.69;100.00
74529;BME280;63009;52.584;5.932;2023-04-07T02:03:04;101441.84;;;7.75;100.00
74529;BME280;63009;52.584;5.932;2023-04-07T02:05:34;101432.22;;;7.74;100.00
74529;BME280;63009;52.584;5.932;2023-04-07T02:08:03;101431.34;;;7.73;100.00
74529;BME280;63009;52.584;5.932;2023-04-07T02:10:33;101421.19;;;7.64;100.00
74529;BME280;63009;52.584;5.932;2023-04-07T02:13:00;101437.38;;;7.77;100.00
74529;BME280;63009;52.584;5.932;2023-04-07T02:15:29;101435.75;;;7.73;100.00
74529;BME280;63009;52.584;5.932;2023-04-07T02:17:56;101434.81;;;7.76;100.00
74529;BME280;63009;52.584;5.932;2023-04-07T02:20:22;101440.28;;;7.69;100.00
74529;BME280;63009;52.584;5.932;2023-04-07T02:22:48;101439.22;;;7.75;100.00
74529;BME280;63009;52.584;5.932;2023-04-07T02:25:24;101435.56;;;7.79;100.00
74529;BME280;63009;52.584;5.932;2023-04-07T02:27:49;101436.91;;;7.66;100.00
74529;BME280;63009;52.584;5.932;2023-04-07T02:30:15;101447.31;;;7.69;100.00
74529;BME280;63009;52.584;5.932;2023-04-07T02:32:40;101437.97;;;7.62;100.00
74529;BME280;63009;52.584;5.932;2023-04-07T02:35:06;101449.97;;;7.69;100.00
74529;BME280;63009;52.584;5.932;2023-04-07T02:37:31;101445.63;;;7.68;100.00
74529;BME280;63009;52.584;5.932;2023-04-07T02:39:56;101445.66;;;7.66;100.00
74529;BME280;63009;52.584;5.932;2023-04-07T02:42:22;101426.03;;;7.52;100.00
74529;BME280;63009;52.584;5.932;2023-04-07T02:44:47;101451.00;;;7.65;100.00
74529;BME280;63009;52.584;5.932;2023-04-07T02:47:12;101435.66;;;7.53;100.00
74529;BME280;63009;52.584;5.932;2023-04-07T02:49:38;101447.56;;;7.63;100.00
74529;BME280;63009;52.584;5.932;2023-04-07T02:52:03;101454.66;;;7.61;100.00
74529;BME280;63009;52.584;5.932;2023-04-07T02:54:28;101444.22;;;7.58;100.00
74529;BME280;63009;52.584;5.932;2023-04-07T02:56:53;101456.44;;;7.60;100.00
74529;BME280;63009;52.584;5.932;2023-04-07T02:59:19;101434.50;;;7.60;100.00
74529;BME280;63009;52.584;5.932;2023-04-07T03:01:44;101436.25;;;7.61;100.00
74529;BME280;63009;52.584;5.932;2023-04-07T03:04:10;101446.84;;;7.58;100.00
74529;BME280;63009;52.584;5.932;2023-04-07T03:06:35;101450.28;;;7.60;100.00
74529;BME280;63009;52.584;5.932;2023-04-07T03:09:00;101439.94;;;7.55;100.00
74529;BME280;63009;52.584;5.932;2023-04-07T03:11:25;101447.63;;;7.61;100.00
74529;BME280;63009;52.584;5.932;2023-04-07T03:13:51;101452.81;;;7.63;100.00
74529;BME280;63009;52.584;5.932;2023-04-07T03:16:16;101443.44;;;7.56;100.00
74529;BME280;63009;52.584;5.932;2023-04-07T03:18:41;101450.28;;;7.60;100.00
74529;BME280;63009;52.584;5.932;2023-04-07T03:21:07;101460.72;;;7.63;100.00
74529;BME280;63009;52.584;5.932;2023-04-07T03:23:32;101435.88;;;7.47;100.00
74529;BME280;63009;52.584;5.932;2023-04-07T03:25:57;101446.84;;;7.58;100.00
74529;BME280;63009;52.584;5.932;2023-04-07T03:28:22;101444.50;;;7.50;100.00
74529;BME280;63009;52.584;5.932;2023-04-07T03:30:48;101454.69;;;7.59;100.00
74529;BME280;63009;52.584;5.932;2023-04-07T03:33:13;101452.16;;;7.56;100.00
74529;BME280;63009;52.584;5.932;2023-04-07T03:35:38;101452.34;;;7.52;100.00
74529;BME280;63009;52.584;5.932;2023-04-07T03:38:03;101453.19;;;7.52;100.00
74529;BME280;63009;52.584;5.932;2023-04-07T03:40:29;101458.34;;;7.55;100.00
74529;BME280;63009;52.584;5.932;2023-04-07T03:42:54;101447.22;;;7.49;100.00
74529;BME280;63009;52.584;5.932;2023-04-07T03:45:19;101449.53;;;7.56;100.00
74529;BME280;63009;52.584;5.932;2023-04-07T03:47:44;101450.47;;;7.55;100.00
74529;BME280;63009;52.584;5.932;2023-04-07T03:50:10;101449.47;;;7.58;100.00
74529;BME280;63009;52.584;5.932;2023-04-07T03:52:35;101442.56;;;7.55;100.00
74529;BME280;63009;52.584;5.932;2023-04-07T03:55:01;101458.16;;;7.61;100.00
74529;BME280;63009;52.584;5.932;2023-04-07T03:57:26;101440.06;;;7.52;100.00
74529;BME280;63009;52.584;5.932;2023-04-07T03:59:52;101464.34;;;7.59;100.00
74529;BME280;63009;52.584;5.932;2023-04-07T04:02:17;101452.41;;;7.50;100.00
74529;BME280;63009;52.584;5.932;2023-04-07T04:04:43;101469.59;;;7.59;100.00
74529;BME280;63009;52.584;5.932;2023-04-07T04:07:08;101455.09;;;7.49;100.00
74529;BME280;63009;52.584;5.932;2023-04-07T04:09:33;101470.59;;;7.56;100.00
74529;BME280;63009;52.584;5.932;2023-04-07T04:11:59;101453.44;;;7.46;100.00
74529;BME280;63009;52.584;5.932;2023-04-07T04:14:25;101460.28;;;7.50;100.00
74529;BME280;63009;52.584;5.932;2023-04-07T04:16:50;101467.81;;;7.61;100.00
74529;BME280;63009;52.584;5.932;2023-04-07T04:19:15;101446.41;;;7.47;100.00
74529;BME280;63009;52.584;5.932;2023-04-07T04:21:41;101462.00;;;7.51;100.00
74529;BME280;63009;52.584;5.932;2023-04-07T04:24:06;101459.44;;;7.50;100.00
74529;BME280;63009;52.584;5.932;2023-04-07T04:26:31;101454.25;;;7.48;100.00
74529;BME280;63009;52.584;5.932;2023-04-07T04:28:56;101473.16;;;7.58;100.00
74529;BME280;63009;52.584;5.932;2023-04-07T04:31:22;101459.19;;;7.56;100.00
74529;BME280;63009;52.584;5.932;2023-04-07T04:33:47;101477.47;;;7.60;100.00
74529;BME280;63009;52.584;5.932;2023-04-07T04:36:12;101463.91;;;7.48;100.00
74529;BME280;63009;52.584;5.932;2023-04-07T04:38:37;101471.56;;;7.54;100.00
74529;BME280;63009;52.584;5.932;2023-04-07T04:41:03;101477.50;;;7.59;100.00
74529;BME280;63009;52.584;5.932;2023-04-07T04:43:28;101475.16;;;7.51;100.00
74529;BME280;63009;52.584;5.932;2023-04-07T04:45:53;101490.81;;;7.54;100.00
74529;BME280;63009;52.584;5.932;2023-04-07T04:48:19;101485.75;;;7.50;100.00
74529;BME280;63009;52.584;5.932;2023-04-07T04:50:44;101459.75;;;7.40;100.00
74529;BME280;63009;52.584;5.932;2023-04-07T04:53:09;101485.50;;;7.56;100.00
74529;BME280;63009;52.584;5.932;2023-04-07T04:55:35;101484.66;;;7.55;100.00
74529;BME280;63009;52.584;5.932;2023-04-07T04:58:00;101488.88;;;7.59;100.00
74529;BME280;63009;52.584;5.932;2023-04-07T05:00:26;101483.06;;;7.51;100.00
74529;BME280;63009;52.584;5.932;2023-04-07T05:02:51;101494.31;;;7.55;100.00
74529;BME280;63009;52.584;5.932;2023-04-07T05:05:16;101480.47;;;7.50;100.00
74529;BME280;63009;52.584;5.932;2023-04-07T05:07:42;101502.25;;;7.53;100.00
74529;BME280;63009;52.584;5.932;2023-04-07T05:10:07;101504.03;;;7.53;100.00
74529;BME280;63009;52.584;5.932;2023-04-07T05:12:33;101491.84;;;7.50;100.00
74529;BME280;63009;52.584;5.932;2023-04-07T05:14:58;101501.41;;;7.53;100.00
74529;BME280;63009;52.584;5.932;2023-04-07T05:17:23;101512.78;;;7.53;100.00
74529;BME280;63009;52.584;5.932;2023-04-07T05:19:49;101505.81;;;7.52;100.00
74529;BME280;63009;52.584;5.932;2023-04-07T05:22:14;101510.25;;;7.50;100.00
74529;BME280;63009;52.584;5.932;2023-04-07T05:24:40;101520.63;;;7.55;100.00
74529;BME280;63009;52.584;5.932;2023-04-07T05:27:05;101517.00;;;7.57;100.00
74529;BME280;63009;52.584;5.932;2023-04-07T05:29:30;101518.78;;;7.57;100.00
74529;BME280;63009;52.584;5.932;2023-04-07T05:31:56;101508.31;;;7.55;100.00
74529;BME280;63009;52.584;5.932;2023-04-07T05:34:21;101517.81;;;7.59;100.00
74529;BME280;63009;52.584;5.932;2023-04-07T05:36:46;101526.56;;;7.60;100.00
74529;BME280;63009;52.584;5.932;2023-04-07T05:39:11;101525.72;;;7.59;100.00
74529;BME280;63009;52.584;5.932;2023-04-07T05:41:37;101515.47;;;7.52;100.00
74529;BME280;63009;52.584;5.932;2023-04-07T05:44:02;101504.25;;;7.47;100.00
74529;BME280;63009;52.584;5.932;2023-04-07T05:46:27;101528.34;;;7.59;100.00
74529;BME280;63009;52.584;5.932;2023-04-07T05:48:53;101530.09;;;7.60;100.00
74529;BME280;63009;52.584;5.932;2023-04-07T05:51:18;101529.25;;;7.58;100.00
74529;BME280;63009;52.584;5.932;2023-04-07T05:53:43;101527.59;;;7.56;100.00
74529;BME280;63009;52.584;5.932;2023-04-07T05:56:09;101532.66;;;7.62;100.00
74529;BME280;63009;52.584;5.932;2023-04-07T05:58:34;101530.09;;;7.60;100.00
74529;BME280;63009;52.584;5.932;2023-04-07T06:00:59;101533.50;;;7.62;100.00
74529;BME280;63009;52.584;5.932;2023-04-07T06:03:25;101540.44;;;7.65;100.00
74529;BME280;63009;52.584;5.932;2023-04-07T06:05:50;101539.63;;;7.63;100.00
74529;BME280;63009;52.584;5.932;2023-04-07T06:08:16;101543.06;;;7.65;100.00
74529;BME280;63009;52.584;5.932;2023-04-07T06:10:41;101550.03;;;7.66;100.00
74529;BME280;63009;52.584;5.932;2023-04-07T06:13:08;101541.34;;;7.64;100.00
74529;BME280;63009;52.584;5.932;2023-04-07T06:15:33;101552.63;;;7.67;100.00
74529;BME280;63009;52.584;5.932;2023-04-07T06:17:59;101541.25;;;7.67;100.00
74529;BME280;63009;52.584;5.932;2023-04-07T06:20:24;101524.91;;;7.57;100.00
74529;BME280;63009;52.584;5.932;2023-04-07T06:22:52;101553.25;;;7.74;100.00
74529;BME280;63009;52.584;5.932;2023-04-07T06:25:17;101523.13;;;7.58;100.00
74529;BME280;63009;52.584;5.932;2023-04-07T06:27:42;101545.53;;;7.69;100.00
74529;BME280;63009;52.584;5.932;2023-04-07T06:30:08;101531.63;;;7.66;100.00
74529;BME280;63009;52.584;5.932;2023-04-07T06:32:34;101559.22;;;7.79;100.00
74529;BME280;63009;52.584;5.932;2023-04-07T06:34:59;101557.41;;;7.81;100.00
74529;BME280;63009;52.584;5.932;2023-04-07T06:37:24;101559.91;;;7.84;100.00
74529;BME280;63009;52.584;5.932;2023-04-07T06:39:50;101567.88;;;7.83;100.00
74529;BME280;63009;52.584;5.932;2023-04-07T06:42:16;101563.34;;;7.86;100.00
74529;BME280;63009;52.584;5.932;2023-04-07T06:44:41;101566.84;;;7.87;100.00
74529;BME280;63009;52.584;5.932;2023-04-07T06:47:06;101566.84;;;7.87;100.00
74529;BME280;63009;52.584;5.932;2023-04-07T06:49:33;101569.47;;;7.87;100.00
74529;BME280;63009;52.584;5.932;2023-04-07T06:51:58;101564.31;;;7.84;100.00
74529;BME280;63009;52.584;5.932;2023-04-07T06:54:23;101573.72;;;7.91;100.00
74529;BME280;63009;52.584;5.932;2023-04-07T06:56:49;101578.81;;;7.95;100.00
74529;BME280;63009;52.584;5.932;2023-04-07T06:59:15;101586.66;;;7.97;100.00
74529;BME280;63009;52.584;5.932;2023-04-07T07:01:40;101587.63;;;7.94;100.00
74529;BME280;63009;52.584;5.932;2023-04-07T07:04:06;101562.41;;;7.89;100.00
74529;BME280;63009;52.584;5.932;2023-04-07T07:06:31;101572.59;;;7.98;100.00
74529;BME280;63009;52.584;5.932;2023-04-07T07:08:57;101583.66;;;8.08;100.00
74529;BME280;63009;52.584;5.932;2023-04-07T07:11:22;101582.72;;;8.09;100.00
74529;BME280;63009;52.584;5.932;2023-04-07T07:13:48;101585.25;;;8.12;100.00
74529;BME280;63009;52.584;5.932;2023-04-07T07:16:13;101570.53;;;8.06;100.00
74529;BME280;63009;52.584;5.932;2023-04-07T07:18:38;101585.13;;;8.15;100.00
74529;BME280;63009;52.584;5.932;2023-04-07T07:21:04;101577.34;;;8.12;100.00
74529;BME280;63009;52.584;5.932;2023-04-07T07:23:29;101593.81;;;8.18;100.00
74529;BME280;63009;52.584;5.932;2023-04-07T07:25:54;101601.69;;;8.18;100.00
74529;BME280;63009;52.584;5.932;2023-04-07T07:28:20;101593.75;;;8.20;100.00
74529;BME280;63009;52.584;5.932;2023-04-07T07:30:46;101599.81;;;8.22;100.00
74529;BME280;63009;52.584;5.932;2023-04-07T07:33:11;101607.59;;;8.25;100.00
74529;BME280;63009;52.584;5.932;2023-04-07T07:35:36;101608.38;;;8.27;100.00
74529;BME280;63009;52.584;5.932;2023-04-07T07:38:02;101603.75;;;8.35;100.00
74529;BME280;63009;52.584;5.932;2023-04-07T07:40:27;101616.94;;;8.33;100.00
74529;BME280;63009;52.584;5.932;2023-04-07T07:42:53;101609.94;;;8.34;100.00
74529;BME280;63009;52.584;5.932;2023-04-07T07:45:18;101612.50;;;8.36;100.00
74529;BME280;63009;52.584;5.932;2023-04-07T07:47:44;101606.38;;;8.35;100.00
74529;BME280;63009;52.584;5.932;2023-04-07T07:50:09;101623.78;;;8.39;100.00
74529;BME280;63009;52.584;5.932;2023-04-07T07:52:35;101619.31;;;8.41;100.00
74529;BME280;63009;52.584;5.932;2023-04-07T07:55:01;101616.78;;;8.38;100.00
74529;BME280;63009;52.584;5.932;2023-04-07T07:57:26;101625.38;;;8.43;100.00
74529;BME280;63009;52.584;5.932;2023-04-07T07:59:52;101627.81;;;8.49;100.00
74529;BME280;63009;52.584;5.932;2023-04-07T08:02:17;101632.34;;;8.46;100.00
74529;BME280;63009;52.584;5.932;2023-04-07T08:04:43;101614.03;;;8.41;100.00
74529;BME280;63009;52.584;5.932;2023-04-07T08:07:08;101636.75;;;8.45;100.00
74529;BME280;63009;52.584;5.932;2023-04-07T08:09:33;101643.66;;;8.48;100.00
74529;BME280;63009;52.584;5.932;2023-04-07T08:11:59;101639.38;;;8.45;100.00
74529;BME280;63009;52.584;5.932;2023-04-07T08:14:24;101641.66;;;8.54;100.00
74529;BME280;63009;52.584;5.932;2023-04-07T08:16:50;101642.38;;;8.58;100.00
74529;BME280;63009;52.584;5.932;2023-04-07T08:19:15;101651.06;;;8.61;100.00
74529;BME280;63009;52.584;5.932;2023-04-07T08:21:40;101654.56;;;8.62;100.00
74529;BME280;63009;52.584;5.932;2023-04-07T08:24:06;101654.44;;;8.65;100.00
74529;BME280;63009;52.584;5.932;2023-04-07T08:26:31;101655.34;;;8.64;100.00
74529;BME280;63009;52.584;5.932;2023-04-07T08:28:57;101653.56;;;8.65;100.00
74529;BME280;63009;52.584;5.932;2023-04-07T08:31:23;101662.28;;;8.67;100.00
74529;BME280;63009;52.584;5.932;2023-04-07T08:33:48;101663.00;;;8.70;100.00
74529;BME280;63009;52.584;5.932;2023-04-07T08:36:18;101664.69;;;8.73;100.00
74529;BME280;63009;52.584;5.932;2023-04-07T08:38:43;101663.78;;;8.74;100.00
74529;BME280;63009;52.584;5.932;2023-04-07T08:41:12;101662.09;;;8.71;100.00
74529;BME280;63009;52.584;5.932;2023-04-07T08:43:41;101657.75;;;8.70;100.00
74529;BME280;63009;52.584;5.932;2023-04-07T08:46:09;101657.66;;;8.73;100.00
74529;BME280;63009;52.584;5.932;2023-04-07T08:48:36;101658.50;;;8.74;100.00
74529;BME280;63009;52.584;5.932;2023-04-07T08:51:06;101676.59;;;8.83;100.00
74529;BME280;63009;52.584;5.932;2023-04-07T08:53:40;101678.50;;;8.79;100.00
74529;BME280;63009;52.584;5.932;2023-04-07T08:56:08;101689.56;;;8.89;100.00
74529;BME280;63009;52.584;5.932;2023-04-07T08:58:35;101677.44;;;8.83;100.00
74529;BME280;63009;52.584;5.932;2023-04-07T09:01:03;101675.63;;;8.85;100.00
74529;BME280;63009;52.584;5.932;2023-04-07T09:03:29;101685.28;;;8.85;100.00
74529;BME280;63009;52.584;5.932;2023-04-07T09:05:57;101692.19;;;8.89;100.00
74529;BME280;63009;52.584;5.932;2023-04-07T09:08:22;101683.44;;;8.88;100.00
74529;BME280;63009;52.584;5.932;2023-04-07T09:10:48;101701.69;;;8.93;100.00
74529;BME280;63009;52.584;5.932;2023-04-07T09:13:13;101695.31;;;8.99;100.00
74529;BME280;63009;52.584;5.932;2023-04-07T09:15:38;101679.88;;;8.89;100.00
74529;BME280;63009;52.584;5.932;2023-04-07T09:18:05;101692.00;;;8.93;100.00
74529;BME280;63009;52.584;5.932;2023-04-07T09:20:53;101703.22;;;8.99;100.00
74529;BME280;63009;52.584;5.932;2023-04-07T09:23:33;101697.47;;;8.89;100.00
74529;BME280;63009;52.584;5.932;2023-04-07T09:26:17;101706.00;;;8.96;100.00
74529;BME280;63009;52.584;5.932;2023-04-07T09:28:44;101704.28;;;8.95;100.00
74529;BME280;63009;52.584;5.932;2023-04-07T09:31:10;101702.50;;;8.95;100.00
74529;BME280;63009;52.584;5.932;2023-04-07T09:33:36;101704.28;;;8.95;100.00
74529;BME280;63009;52.584;5.932;2023-04-07T09:36:05;101708.56;;;8.97;100.00
74529;BME280;63009;52.584;5.932;2023-04-07T09:38:32;101716.34;;;9.00;100.00
74529;BME280;63009;52.584;5.932;2023-04-07T09:41:26;101703.94;;;9.04;100.00
74529;BME280;63009;52.584;5.932;2023-04-07T09:43:55;101712.47;;;9.10;100.00
74529;BME280;63009;52.584;5.932;2023-04-07T09:46:21;101692.75;;;8.97;100.00
74529;BME280;63009;52.584;5.932;2023-04-07T09:48:46;101706.50;;;9.05;100.00
74529;BME280;63009;52.584;5.932;2023-04-07T09:51:14;101711.47;;;9.13;100.00
74529;BME280;63009;52.584;5.932;2023-04-07T09:53:45;101708.84;;;9.13;100.00
74529;BME280;63009;52.584;5.932;2023-04-07T09:56:12;101721.22;;;9.11;100.00
74529;BME280;63009;52.584;5.932;2023-04-07T09:58:38;101712.34;;;9.13;100.00
74529;BME280;63009;52.584;5.932;2023-04-07T10:01:06;101725.53;;;9.13;100.00
74529;BME280;63009;52.584;5.932;2023-04-07T10:03:35;101722.09;;;9.11;100.00
74529;BME280;63009;52.584;5.932;2023-04-07T10:06:02;101724.13;;;9.05;100.00
74529;BME280;63009;52.584;5.932;2023-04-07T10:08:27;101718.13;;;9.00;100.00
74529;BME280;63009;52.584;5.932;2023-04-07T10:10:55;101728.59;;;9.03;100.00
74529;BME280;63009;52.584;5.932;2023-04-07T10:13:21;101728.69;;;9.00;100.00
74529;BME280;63009;52.584;5.932;2023-04-07T10:15:48;101716.53;;;8.96;100.00
74529;BME280;63009;52.584;5.932;2023-04-07T10:18:14;101727.03;;;8.97;100.00
74529;BME280;63009;52.584;5.932;2023-04-07T10:20:42;101738.94;;;9.07;100.00
74529;BME280;63009;52.584;5.932;2023-04-07T10:23:16;101744.09;;;9.10;100.00
74529;BME280;63009;52.584;5.932;2023-04-07T10:25:43;101739.63;;;9.12;100.00
74529;BME280;63009;52.584;5.932;2023-04-07T10:28:11;101740.34;;;9.17;100.00
74529;BME280;63009;52.584;5.932;2023-04-07T10:30:37;101738.44;;;9.21;100.00
74529;BME280;63009;52.584;5.932;2023-04-07T10:33:03;101746.41;;;9.19;100.00
74529;BME280;63009;52.584;5.932;2023-04-07T10:36:04;101745.34;;;9.23;100.00
74529;BME280;63009;52.584;5.932;2023-04-07T10:38:30;101749.59;;;9.28;100.00
74529;BME280;63009;52.584;5.932;2023-04-07T10:40:56;101752.06;;;9.32;100.00
74529;BME280;63009;52.584;5.932;2023-04-07T10:43:38;101753.66;;;9.36;100.00
74529;BME280;63009;52.584;5.932;2023-04-07T10:46:08;101746.84;;;9.31;100.00
74529;BME280;63009;52.584;5.932;2023-04-07T10:48:34;101754.00;;;9.27;100.00
74529;BME280;63009;52.584;5.932;2023-04-07T10:53:28;101771.56;;;9.28;100.00
74529;BME280;63009;52.584;5.932;2023-04-07T10:55:53;101764.63;;;9.26;100.00
74529;BME280;63009;52.584;5.932;2023-04-07T10:58:26;101771.91;;;9.19;100.00
74529;BME280;63009;52.584;5.932;2023-04-07T11:03:40;101781.94;;;9.09;100.00
74529;BME280;63009;52.584;5.932;2023-04-07T11:06:10;101787.22;;;9.09;100.00
74529;BME280;63009;52.584;5.932;2023-04-07T11:08:39;101775.88;;;9.07;100.00
74529;BME280;63009;52.584;5.932;2023-04-07T11:11:10;101776.72;;;9.08;100.00
74529;BME280;63009;52.584;5.932;2023-04-07T11:13:40;101779.53;;;9.03;100.00
74529;BME280;63009;52.584;5.932;2023-04-07T11:16:05;101790.94;;;9.04;100.00
74529;BME280;63009;52.584;5.932;2023-04-07T11:18:31;101789.19;;;9.04;100.00
74529;BME280;63009;52.584;5.932;2023-04-07T11:20:57;101784.75;;;9.05;100.00
74529;BME280;63009;52.584;5.932;2023-04-07T11:23:25;101793.53;;;9.05;100.00
74529;BME280;63009;52.584;5.932;2023-04-07T11:26:01;101783.31;;;8.96;100.00
74529;BME280;63009;52.584;5.932;2023-04-07T11:28:27;101789.19;;;9.04;100.00
74529;BME280;63009;52.584;5.932;2023-04-07T11:30:53;101787.47;;;9.03;100.00
74529;BME280;63009;52.584;5.932;2023-04-07T11:33:21;101797.75;;;9.09;100.00
74529;BME280;63009;52.584;5.932;2023-04-07T11:38:16;101806.59;;;9.08;100.00
74529;BME280;63009;52.584;5.932;2023-04-07T11:40:42;101792.81;;;9.00;100.00
74529;BME280;63009;52.584;5.932;2023-04-07T11:43:21;101811.81;;;9.10;100.00
74529;BME280;63009;52.584;5.932;2023-04-07T11:46:07;101796.97;;;9.07;100.00
74529;BME280;63009;52.584;5.932;2023-04-07T11:48:34;101805.63;;;9.11;100.00
74529;BME280;63009;52.584;5.932;2023-04-07T11:51:00;101798.75;;;9.07;100.00
74529;BME280;63009;52.584;5.932;2023-04-07T11:56:00;101800.13;;;9.17;100.00
74529;BME280;63009;52.584;5.932;2023-04-07T11:58:26;101817.16;;;9.32;100.00
74529;BME280;63009;52.584;5.932;2023-04-07T12:00:55;101818.63;;;9.39;100.00
74529;BME280;63009;52.584;5.932;2023-04-07T12:03:22;101811.53;;;9.41;100.00
74529;BME280;63009;52.584;5.932;2023-04-07T12:05:47;101799.13;;;9.43;100.00
74529;BME280;63009;52.584;5.932;2023-04-07T12:08:13;101803.50;;;9.44;100.00
74529;BME280;63009;52.584;5.932;2023-04-07T12:10:41;101814.41;;;9.58;100.00
74529;BME280;63009;52.584;5.932;2023-04-07T12:13:07;101821.28;;;9.62;100.00
74529;BME280;63009;52.584;5.932;2023-04-07T12:15:34;101828.00;;;9.69;100.00
74529;BME280;63009;52.584;5.932;2023-04-07T12:18:01;101830.56;;;9.72;100.00
74529;BME280;63009;52.584;5.932;2023-04-07T12:20:27;101827.78;;;9.75;100.00
74529;BME280;63009;52.584;5.932;2023-04-07T12:22:52;101836.31;;;9.82;100.00
74529;BME280;63009;52.584;5.932;2023-04-07T12:25:18;101828.72;;;9.74;100.00
74529;BME280;63009;52.584;5.932;2023-04-07T12:27:43;101837.38;;;9.78;100.00
74529;BME280;63009;52.584;5.932;2023-04-07T12:30:08;101815.19;;;9.60;100.00
74529;BME280;63009;52.584;5.932;2023-04-07T12:32:34;101829.91;;;9.66;100.00
74529;BME280;63009;52.584;5.932;2023-04-07T12:34:59;101857.56;;;9.79;100.00
74529;BME280;63009;52.584;5.932;2023-04-07T12:37:25;101858.16;;;9.64;100.00
74529;BME280;63009;52.584;5.932;2023-04-07T12:39:50;101857.38;;;9.62;100.00
74529;BME280;63009;52.584;5.932;2023-04-07T12:42:15;101861.84;;;9.60;100.00
74529;BME280;63009;52.584;5.932;2023-04-07T12:44:41;101857.69;;;9.52;100.00
74529;BME280;63009;52.584;5.932;2023-04-07T12:47:06;101841.53;;;9.38;100.00
74529;BME280;63009;52.584;5.932;2023-04-07T12:49:32;101862.19;;;9.50;100.00
74529;BME280;63009;52.584;5.932;2023-04-07T12:51:57;101862.69;;;9.37;100.00
74529;BME280;63009;52.584;5.932;2023-04-07T12:54:22;101863.00;;;9.29;100.00
74529;BME280;63009;52.584;5.932;2023-04-07T12:56:48;101871.06;;;9.25;100.00
74529;BME280;63009;52.584;5.932;2023-04-07T12:59:13;101875.47;;;9.24;100.00